createdAt,value
2022-08-07T00:02:40.730Z,25.30
2022-08-07T00:04:16.439Z,25.40
2022-08-07T00:06:29.506Z,25.30
2022-08-07T00:08:38.142Z,25.30
2022-08-07T00:10:57.278Z,25.40
2022-08-07T00:13:24.065Z,25.40
2022-08-07T00:15:38.328Z,25.30
2022-08-07T00:17:51.428Z,25.40
2022-08-07T00:20:01.491Z,25.50
2022-08-07T00:22:08.221Z,25.40
2022-08-07T00:24:16.663Z,25.40
2022-08-07T00:26:58.488Z,25.30
2022-08-07T00:28:56.855Z,25.20
2022-08-07T00:31:01.715Z,25.20
2022-08-07T00:33:10.813Z,25.20
2022-08-07T00:35:19.447Z,25.10
2022-08-07T00:37:29.428Z,25.00
2022-08-07T00:39:54.987Z,25.00
2022-08-07T00:42:05.253Z,25.00
2022-08-07T00:44:10.453Z,25.10
2022-08-07T00:46:20.111Z,25.20
2022-08-07T00:48:31.775Z,25.20
2022-08-07T00:50:50.796Z,25.10
2022-08-07T00:52:55.963Z,25.20
2022-08-07T00:55:04.605Z,25.10
2022-08-07T00:57:15.649Z,25.10
2022-08-07T00:59:35.377Z,25.20
2022-08-07T01:01:44.186Z,25.00
2022-08-07T01:03:57.276Z,24.90
2022-08-07T01:06:06.357Z,24.90
2022-08-07T01:08:11.324Z,25.00
2022-08-07T01:10:18.278Z,25.10
2022-08-07T01:12:29.914Z,25.00
2022-08-07T01:14:37.037Z,24.80
2022-08-07T01:16:43.198Z,24.80
2022-08-07T01:18:51.973Z,25.00
2022-08-07T01:21:17.501Z,25.00
2022-08-07T01:23:34.692Z,25.10
2022-08-07T01:25:55.615Z,25.00
2022-08-07T01:28:01.775Z,25.00
2022-08-07T01:30:07.914Z,24.90
2022-08-07T01:32:15.728Z,24.90
2022-08-07T01:34:30.570Z,25.00
2022-08-07T01:36:40.617Z,24.90
2022-08-07T01:38:52.105Z,24.80
2022-08-07T01:41:02.521Z,24.80
2022-08-07T01:43:07.424Z,24.80
2022-08-07T01:45:18.239Z,24.70
2022-08-07T01:48:19.126Z,24.50
2022-08-07T01:49:54.600Z,24.60
2022-08-07T01:52:05.303Z,24.60
2022-08-07T01:54:22.026Z,24.50
2022-08-07T01:56:49.301Z,24.40
2022-08-07T01:58:59.834Z,24.40
2022-08-07T02:01:09.703Z,24.40
2022-08-07T02:03:42.700Z,24.20
2022-08-07T02:05:59.609Z,24.30
2022-08-07T02:08:13.937Z,24.50
2022-08-07T02:10:24.285Z,24.40
2022-08-07T02:12:31.849Z,24.50
2022-08-07T02:14:40.727Z,24.50
2022-08-07T02:16:54.700Z,24.50
2022-08-07T02:19:00.109Z,24.50
2022-08-07T02:21:06.959Z,24.40
2022-08-07T02:23:17.040Z,24.40
2022-08-07T02:25:32.117Z,24.50
2022-08-07T02:27:58.202Z,24.50
2022-08-07T02:30:07.049Z,24.50
2022-08-07T02:32:14.709Z,24.40
2022-08-07T02:34:21.009Z,24.50
2022-08-07T02:36:32.780Z,24.50
2022-08-07T02:38:50.651Z,24.70
2022-08-07T02:41:04.086Z,24.70
2022-08-07T02:43:11.246Z,24.60
2022-08-07T02:45:59.145Z,24.70
2022-08-07T02:47:49.077Z,24.70
2022-08-07T02:49:56.237Z,24.60
2022-08-07T02:52:07.580Z,24.40
2022-08-07T02:54:18.416Z,24.30
2022-08-07T02:56:24.852Z,24.20
2022-08-07T02:58:33.938Z,24.20
2022-08-07T03:00:46.616Z,24.20
2022-08-07T03:02:54.950Z,24.20
2022-08-07T03:05:05.047Z,24.30
2022-08-07T03:07:13.050Z,24.30
2022-08-07T03:09:43.330Z,24.40
2022-08-07T03:11:51.881Z,24.50
2022-08-07T03:14:05.739Z,24.50
2022-08-07T03:16:10.855Z,24.40
2022-08-07T03:18:20.273Z,24.50
2022-08-07T03:20:29.379Z,24.50
2022-08-07T03:22:35.271Z,24.40
2022-08-07T03:24:41.108Z,24.50
2022-08-07T03:26:51.385Z,24.70
2022-08-07T03:29:05.235Z,24.90
2022-08-07T03:31:26.149Z,25.20
2022-08-07T03:33:47.556Z,25.40
2022-08-07T03:35:53.924Z,25.90
2022-08-07T03:38:04.789Z,26.30
2022-08-07T03:40:15.805Z,26.60
2022-08-07T03:42:22.353Z,26.90
2022-08-07T03:44:34.449Z,26.90
2022-08-07T03:47:10.922Z,26.90
2022-08-07T03:49:06.631Z,27.20
2022-08-07T03:51:20.755Z,27.30
2022-08-07T03:54:01.751Z,27.70
2022-08-07T03:56:04.008Z,28.30
2022-08-07T03:59:04.934Z,28.70
2022-08-07T04:00:36.916Z,29.10
2022-08-07T04:02:43.222Z,29.50
2022-08-07T04:05:00.554Z,29.70
2022-08-07T04:07:17.313Z,29.40
2022-08-07T04:09:24.619Z,29.50
2022-08-07T04:12:24.184Z,29.40
2022-08-07T04:14:10.582Z,29.60
2022-08-07T04:16:31.547Z,29.30
2022-08-07T04:18:59.182Z,28.80
2022-08-07T04:21:04.361Z,28.60
2022-08-07T04:23:19.397Z,28.00
2022-08-07T04:25:29.276Z,27.60
2022-08-07T04:27:46.020Z,27.20
2022-08-07T04:30:04.985Z,27.20
2022-08-07T04:32:34.507Z,27.20
2022-08-07T04:34:40.932Z,27.60
2022-08-07T04:36:49.524Z,27.70
2022-08-07T04:38:54.873Z,27.90
2022-08-07T04:40:59.382Z,27.80
2022-08-07T04:43:20.958Z,27.70
2022-08-07T04:45:52.119Z,27.70
2022-08-07T04:48:10.693Z,27.90
2022-08-07T04:50:23.724Z,27.70
2022-08-07T04:52:52.852Z,27.50
2022-08-07T04:55:14.882Z,27.70
2022-08-07T04:58:10.762Z,27.50
2022-08-07T05:00:30.077Z,28.00
2022-08-07T05:02:44.114Z,28.30
2022-08-07T05:04:57.378Z,28.40
2022-08-07T05:07:20.488Z,28.50
2022-08-07T05:09:46.282Z,29.00
2022-08-07T05:11:58.043Z,29.50
2022-08-07T05:14:52.440Z,29.20
2022-08-07T05:16:43.975Z,29.50
2022-08-07T05:18:56.024Z,30.10
2022-08-07T05:21:04.111Z,30.80
2022-08-07T05:23:16.357Z,30.90
2022-08-07T05:25:35.602Z,31.00
2022-08-07T05:28:05.977Z,31.30
2022-08-07T05:30:10.581Z,31.60
2022-08-07T05:32:19.929Z,31.40
2022-08-07T05:34:26.162Z,31.10
2022-08-07T05:36:35.699Z,31.00
2022-08-07T05:39:00.332Z,30.70
2022-08-07T05:41:13.991Z,30.40
2022-08-07T05:43:43.402Z,30.40
2022-08-07T05:46:03.159Z,30.20
2022-08-07T05:48:11.409Z,30.40
2022-08-07T05:50:20.060Z,30.40
2022-08-07T05:52:32.442Z,30.70
2022-08-07T05:54:53.124Z,30.60
2022-08-07T05:57:03.495Z,30.50
2022-08-07T05:59:15.223Z,30.40
2022-08-07T06:01:23.160Z,29.90
2022-08-07T06:03:53.908Z,29.80
2022-08-07T06:06:01.678Z,29.80
2022-08-07T06:08:30.170Z,30.10
2022-08-07T06:10:32.687Z,30.00
2022-08-07T06:12:38.180Z,30.00
2022-08-07T06:14:49.278Z,29.80
2022-08-07T06:16:57.148Z,29.80
2022-08-07T06:19:17.847Z,29.40
2022-08-07T06:22:14.806Z,29.60
2022-08-07T06:24:53.032Z,30.00
2022-08-07T06:26:14.561Z,30.10
2022-08-07T06:28:27.608Z,30.30
2022-08-07T06:30:42.753Z,30.40
2022-08-07T06:32:54.974Z,30.30
2022-08-07T06:35:01.288Z,30.10
2022-08-07T06:37:06.152Z,29.90
2022-08-07T06:40:13.298Z,29.90
2022-08-07T06:42:00.658Z,29.90
2022-08-07T06:44:44.902Z,30.00
2022-08-07T06:47:10.104Z,30.30
2022-08-07T06:49:19.167Z,30.70
2022-08-07T06:51:33.546Z,30.90
2022-08-07T06:55:30.264Z,30.80
2022-08-07T06:56:15.306Z,30.80
2022-08-07T06:58:24.498Z,30.80
2022-08-07T07:00:44.237Z,30.70
2022-08-07T07:03:01.239Z,30.90
2022-08-07T07:06:02.926Z,30.90
2022-08-07T07:08:25.684Z,30.70
2022-08-07T07:10:54.738Z,31.10
2022-08-07T07:13:43.706Z,31.10
2022-08-07T07:16:10.413Z,31.20
2022-08-07T07:18:47.125Z,31.30
2022-08-07T07:21:03.927Z,31.60
2022-08-07T07:24:10.028Z,32.00
2022-08-07T07:26:35.940Z,32.00
2022-08-07T07:29:40.717Z,31.90
2022-08-07T07:31:39.819Z,31.70
2022-08-07T07:34:15.561Z,31.40
2022-08-07T07:36:33.633Z,31.20
2022-08-07T07:38:48.958Z,31.10
2022-08-07T07:41:08.578Z,31.20
2022-08-07T07:43:18.817Z,31.30
2022-08-07T07:46:35.675Z,31.30
2022-08-07T07:47:59.353Z,31.40
2022-08-07T07:50:33.456Z,32.10
2022-08-07T07:52:37.865Z,32.50
2022-08-07T07:54:51.302Z,32.20
2022-08-07T07:56:58.550Z,32.10
2022-08-07T07:59:07.060Z,32.10
2022-08-07T08:02:01.850Z,32.20
2022-08-07T08:04:09.986Z,32.20
2022-08-07T08:06:11.596Z,32.20
2022-08-07T08:08:35.584Z,31.80
2022-08-07T08:10:46.431Z,31.80
2022-08-07T08:12:59.679Z,31.90
2022-08-07T08:15:06.983Z,31.80
2022-08-07T08:17:56.265Z,31.60
2022-08-07T08:20:17.523Z,31.50
2022-08-07T08:22:32.565Z,31.50
2022-08-07T08:25:18.232Z,31.80
2022-08-07T08:27:33.686Z,31.90
2022-08-07T08:29:54.108Z,32.10
2022-08-07T08:32:17.800Z,31.80
2022-08-07T08:34:26.969Z,31.80
2022-08-07T08:36:40.039Z,31.80
2022-08-07T08:39:05.528Z,31.60
2022-08-07T08:41:56.877Z,31.50
2022-08-07T08:44:17.432Z,31.60
2022-08-07T08:46:53.040Z,31.70
2022-08-07T08:49:06.728Z,31.80
2022-08-07T08:52:01.046Z,32.00
2022-08-07T08:54:00.053Z,31.80
2022-08-07T08:56:12.424Z,32.00
2022-08-07T08:58:28.517Z,32.30
2022-08-07T09:00:48.596Z,32.40
2022-08-07T09:03:49.406Z,32.50
2022-08-07T09:06:04.475Z,32.20
2022-08-07T09:08:24.339Z,32.10
2022-08-07T09:10:39.124Z,32.30
2022-08-07T09:12:54.993Z,32.40
2022-08-07T09:16:21.957Z,32.10
2022-08-07T09:17:59.348Z,32.10
2022-08-07T09:20:35.652Z,31.80
2022-08-07T09:24:31.971Z,31.90
2022-08-07T09:25:26.769Z,32.00
2022-08-07T09:28:00.623Z,32.10
2022-08-07T09:30:09.024Z,32.20
2022-08-07T09:32:31.118Z,31.80
2022-08-07T09:34:56.574Z,31.60
2022-08-07T09:37:06.282Z,31.60
2022-08-07T09:39:54.756Z,31.80
2022-08-07T09:42:07.623Z,32.10
2022-08-07T09:44:40.231Z,32.10
2022-08-07T09:47:50.209Z,32.10
2022-08-07T09:50:01.497Z,32.10
2022-08-07T09:52:34.350Z,32.10
2022-08-07T09:54:42.725Z,32.30
2022-08-07T09:57:12.928Z,32.30
2022-08-07T09:59:44.591Z,32.10
2022-08-07T10:02:10.024Z,32.20
2022-08-07T10:04:33.357Z,32.20
2022-08-07T10:07:00.934Z,32.30
2022-08-07T10:10:00.402Z,32.60
2022-08-07T10:12:21.800Z,32.60
2022-08-07T10:15:03.052Z,32.40
2022-08-07T10:17:24.688Z,32.30
2022-08-07T10:20:12.971Z,32.20
2022-08-07T10:22:58.652Z,32.40
2022-08-07T10:25:22.743Z,32.30
2022-08-07T10:27:45.933Z,32.50
2022-08-07T10:30:12.318Z,32.60
2022-08-07T10:32:51.009Z,32.70
2022-08-07T10:35:14.813Z,32.60
2022-08-07T10:38:00.162Z,32.30
2022-08-07T10:40:09.913Z,32.00
2022-08-07T10:42:30.982Z,32.10
2022-08-07T10:44:47.361Z,32.40
2022-08-07T10:47:01.374Z,32.50
2022-08-07T10:49:16.219Z,32.90
2022-08-07T10:51:39.540Z,33.40
2022-08-07T10:54:12.041Z,33.30
2022-08-07T10:56:38.250Z,32.80
2022-08-07T10:59:00.468Z,32.80
2022-08-07T11:01:23.579Z,32.80
2022-08-07T11:03:37.693Z,32.80
2022-08-07T11:05:54.807Z,32.80
2022-08-07T11:08:07.976Z,32.50
2022-08-07T11:10:21.405Z,32.60
2022-08-07T11:12:38.949Z,32.80
2022-08-07T11:14:57.294Z,33.00
2022-08-07T11:17:23.242Z,32.70
2022-08-07T11:19:47.214Z,32.70
2022-08-07T11:22:03.375Z,32.90
2022-08-07T11:24:16.598Z,32.70
2022-08-07T11:26:29.673Z,32.60
2022-08-07T11:28:42.432Z,32.50
2022-08-07T11:30:55.912Z,32.30
2022-08-07T11:33:07.938Z,32.50
2022-08-07T11:35:26.773Z,32.80
2022-08-07T11:38:12.941Z,33.00
2022-08-07T11:40:32.280Z,32.90
2022-08-07T11:42:55.715Z,32.60
2022-08-07T11:45:20.461Z,32.90
2022-08-07T11:47:39.016Z,33.20
2022-08-07T11:50:32.353Z,33.10
2022-08-07T11:53:05.024Z,32.90
2022-08-07T11:56:15.609Z,33.20
2022-08-07T11:57:59.444Z,33.10
2022-08-07T12:00:18.968Z,33.00
2022-08-07T12:02:37.470Z,32.80
2022-08-07T12:05:09.051Z,32.50
2022-08-07T12:07:39.016Z,32.60
2022-08-07T12:09:49.449Z,32.60
2022-08-07T12:12:09.544Z,32.70
2022-08-07T12:14:20.836Z,33.00
2022-08-07T12:16:32.463Z,33.30
2022-08-07T12:18:45.154Z,33.30
2022-08-07T12:20:57.408Z,33.30
2022-08-07T12:24:05.830Z,33.20
2022-08-07T12:26:23.267Z,33.20
2022-08-07T12:28:32.904Z,33.40
2022-08-07T12:30:46.778Z,33.40
2022-08-07T12:33:00.312Z,33.40
2022-08-07T12:35:08.330Z,32.70
2022-08-07T12:37:22.892Z,32.50
2022-08-07T12:39:42.279Z,32.60
2022-08-07T12:41:51.430Z,32.80
2022-08-07T12:44:03.750Z,33.20
2022-08-07T12:46:32.004Z,33.30
2022-08-07T12:48:53.029Z,33.30
2022-08-07T12:51:13.154Z,33.30
2022-08-07T12:54:02.740Z,32.90
2022-08-07T12:56:04.265Z,32.80
2022-08-07T12:58:17.141Z,32.90
2022-08-07T13:00:32.565Z,33.10
2022-08-07T13:03:07.028Z,33.10
2022-08-07T13:06:03.597Z,33.30
2022-08-07T13:08:26.213Z,33.40
2022-08-07T13:10:55.893Z,33.40
2022-08-07T13:13:46.859Z,33.70
2022-08-07T13:15:59.068Z,33.40
2022-08-07T13:18:26.030Z,33.30
2022-08-07T13:20:44.560Z,33.30
2022-08-07T13:22:54.386Z,33.50
2022-08-07T13:25:03.100Z,33.50
2022-08-07T13:27:13.194Z,33.60
2022-08-07T13:29:21.839Z,33.70
2022-08-07T13:31:46.057Z,33.90
2022-08-07T13:34:30.241Z,34.00
2022-08-07T13:36:39.664Z,34.00
2022-08-07T13:38:50.823Z,34.00
2022-08-07T13:41:05.778Z,33.90
2022-08-07T13:43:16.405Z,34.10
2022-08-07T13:46:11.893Z,34.20
2022-08-07T13:48:07.721Z,34.40
2022-08-07T13:50:35.355Z,34.00
2022-08-07T13:52:47.029Z,34.10
2022-08-07T13:54:51.730Z,34.20
2022-08-07T13:57:00.777Z,34.10
2022-08-07T13:59:12.062Z,34.00
2022-08-07T14:01:21.971Z,33.90
2022-08-07T14:04:06.815Z,34.00
2022-08-07T14:06:04.309Z,33.90
2022-08-07T14:08:13.099Z,33.80
2022-08-07T14:10:28.217Z,33.80
2022-08-07T14:12:54.010Z,33.80
2022-08-07T14:15:10.550Z,33.60
2022-08-07T14:18:12.126Z,33.50
2022-08-07T14:20:40.867Z,33.60
2022-08-07T14:22:34.478Z,33.70
2022-08-07T14:24:47.413Z,33.80
2022-08-07T14:26:54.065Z,33.90
2022-08-07T14:29:05.664Z,33.80
2022-08-07T14:31:16.709Z,33.70
2022-08-07T14:33:23.404Z,33.80
2022-08-07T14:35:44.597Z,33.60
2022-08-07T14:38:05.550Z,33.70
2022-08-07T14:40:26.220Z,33.80
2022-08-07T14:43:55.665Z,33.80
2022-08-07T14:45:21.445Z,33.60
2022-08-07T14:47:34.703Z,33.40
2022-08-07T14:49:58.353Z,33.30
2022-08-07T14:52:10.527Z,33.20
2022-08-07T14:54:32.989Z,33.20
2022-08-07T14:56:44.442Z,33.20
2022-08-07T14:58:55.341Z,33.20
2022-08-07T15:01:21.727Z,33.30
2022-08-07T15:03:52.438Z,33.40
2022-08-07T15:06:04.338Z,33.40
2022-08-07T15:08:12.518Z,33.30
2022-08-07T15:12:54.818Z,33.20
2022-08-07T15:15:07.354Z,33.30
2022-08-07T15:17:16.754Z,33.30
2022-08-07T15:20:31.559Z,33.40
2022-08-07T15:22:04.217Z,33.20
2022-08-07T15:25:13.347Z,33.30
2022-08-07T15:26:48.999Z,33.30
2022-08-07T15:30:08.586Z,33.30
2022-08-07T15:34:01.576Z,33.20
2022-08-07T15:36:08.916Z,33.30
2022-08-07T15:38:30.441Z,33.40
2022-08-07T15:40:38.616Z,33.40
2022-08-07T15:43:53.116Z,33.30
2022-08-07T15:45:55.885Z,33.40
2022-08-07T15:48:09.496Z,33.40
2022-08-07T15:51:01.703Z,33.30
2022-08-07T15:52:51.675Z,33.30
2022-08-07T15:55:02.425Z,33.30
2022-08-07T15:57:39.165Z,33.20
2022-08-07T15:59:44.211Z,33.10
2022-08-07T16:02:01.891Z,33.00
2022-08-07T16:04:14.657Z,33.10
2022-08-07T16:06:29.517Z,33.00
2022-08-07T16:08:38.638Z,33.00
2022-08-07T16:10:48.733Z,33.00
2022-08-07T16:13:05.801Z,33.00
2022-08-07T16:15:57.427Z,32.90
2022-08-07T16:18:50.361Z,32.90
2022-08-07T16:22:02.049Z,33.00
2022-08-07T16:23:54.826Z,33.20
2022-08-07T16:26:09.656Z,33.10
2022-08-07T16:29:18.352Z,33.00
2022-08-07T16:31:12.026Z,32.90
2022-08-07T16:34:03.219Z,32.80
2022-08-07T16:36:31.209Z,32.80
2022-08-07T16:39:01.016Z,32.80
2022-08-07T16:41:24.216Z,32.80
2022-08-07T16:44:06.280Z,32.70
2022-08-07T16:50:20.776Z,32.80
2022-08-07T16:52:50.926Z,32.70
2022-08-07T16:54:36.148Z,32.60
2022-08-07T16:57:06.810Z,32.60
2022-08-07T16:59:45.760Z,32.60
2022-08-07T17:02:03.251Z,32.70
2022-08-07T17:04:24.602Z,32.60
2022-08-07T17:07:03.125Z,32.50
2022-08-07T17:10:05.421Z,32.60
2022-08-07T17:12:05.230Z,32.70
2022-08-07T17:14:19.543Z,32.70
2022-08-07T17:16:30.160Z,32.50
2022-08-07T17:18:40.943Z,32.50
2022-08-07T17:20:54.714Z,32.50
2022-08-07T17:23:08.773Z,32.40
2022-08-07T17:25:47.484Z,32.30
2022-08-07T17:27:56.149Z,32.20
2022-08-07T17:30:15.158Z,32.20
2022-08-07T17:32:31.410Z,32.10
2022-08-07T17:35:32.995Z,32.00
2022-08-07T17:38:06.491Z,32.00
2022-08-07T17:39:57.727Z,31.90
2022-08-07T17:42:14.057Z,31.90
2022-08-07T17:44:33.548Z,32.00
2022-08-07T17:46:57.077Z,32.00
2022-08-07T17:49:12.074Z,31.90
2022-08-07T17:51:23.132Z,32.00
2022-08-07T17:54:00.520Z,31.90
2022-08-07T17:56:28.918Z,31.70
2022-08-07T17:58:46.349Z,31.40
2022-08-07T18:00:55.205Z,31.30
2022-08-07T18:03:05.302Z,31.30
2022-08-07T18:05:21.773Z,31.20
2022-08-07T18:07:38.601Z,31.10
2022-08-07T18:10:06.062Z,31.00
2022-08-07T18:12:30.360Z,30.90
2022-08-07T18:14:45.072Z,30.90
2022-08-07T18:16:58.308Z,31.00
2022-08-07T18:21:06.021Z,31.00
2022-08-07T18:22:00.461Z,31.00
2022-08-07T18:24:08.961Z,30.90
2022-08-07T18:26:19.571Z,30.70
2022-08-07T18:28:35.230Z,30.70
2022-08-07T18:30:50.877Z,30.60
2022-08-07T18:33:35.785Z,30.50
2022-08-07T18:35:53.767Z,30.30
2022-08-07T18:38:58.567Z,30.00
2022-08-07T18:41:09.036Z,29.90
2022-08-07T18:43:37.278Z,29.80
2022-08-07T18:46:24.580Z,29.80
2022-08-07T18:49:23.697Z,29.70
2022-08-07T18:51:09.655Z,29.60
2022-08-07T18:53:39.575Z,29.60
2022-08-07T18:55:59.949Z,29.50
2022-08-07T18:58:22.392Z,29.70
2022-08-07T19:00:42.837Z,29.60
2022-08-07T19:03:15.904Z,29.60
2022-08-07T19:06:03.528Z,29.50
2022-08-07T19:08:03.710Z,29.50
2022-08-07T19:10:18.643Z,29.40
2022-08-07T19:12:53.343Z,29.30
2022-08-07T19:16:03.201Z,29.30
2022-08-07T19:18:03.982Z,29.30
2022-08-07T19:20:29.266Z,29.30
2022-08-07T19:22:52.550Z,29.00
2022-08-07T19:25:06.370Z,29.00
2022-08-07T19:29:02.951Z,28.90
2022-08-07T19:31:03.464Z,28.90
2022-08-07T19:32:26.031Z,28.90
2022-08-07T19:34:42.911Z,28.90
2022-08-07T19:37:16.967Z,28.70
2022-08-07T19:39:56.445Z,28.60
2022-08-07T19:42:08.377Z,28.50
2022-08-07T19:44:31.467Z,28.40
2022-08-07T19:46:41.045Z,28.40
2022-08-07T19:49:06.400Z,28.30
2022-08-07T19:51:20.387Z,28.30
2022-08-07T19:54:35.609Z,28.20
2022-08-07T19:57:51.975Z,28.10
2022-08-07T19:58:53.019Z,28.10
2022-08-07T20:01:01.699Z,28.10
2022-08-07T20:03:35.336Z,28.00
2022-08-07T20:05:59.704Z,28.00
2022-08-07T20:08:05.746Z,28.10
2022-08-07T20:10:37.000Z,28.10
2022-08-07T20:12:43.088Z,28.20
2022-08-07T20:14:53.982Z,28.10
2022-08-07T20:17:07.143Z,28.00
2022-08-07T20:19:24.797Z,28.00
2022-08-07T20:21:41.640Z,28.00
2022-08-07T20:23:58.031Z,27.90
2022-08-07T20:26:09.896Z,27.90
2022-08-07T20:28:17.936Z,27.80
2022-08-07T20:30:30.293Z,27.70
2022-08-07T20:32:40.250Z,27.80
2022-08-07T20:34:51.087Z,27.70
2022-08-07T20:36:57.673Z,27.70
2022-08-07T20:39:30.544Z,27.70
2022-08-07T20:41:34.157Z,27.80
2022-08-07T20:43:47.752Z,27.80
2022-08-07T20:46:26.963Z,27.90
2022-08-07T20:48:28.295Z,27.90
2022-08-07T20:50:34.678Z,28.00
2022-08-07T20:52:51.181Z,28.00
2022-08-07T20:54:57.535Z,28.00
2022-08-07T20:57:08.266Z,27.80
2022-08-07T20:59:27.176Z,27.90
2022-08-07T21:01:54.897Z,27.90
2022-08-07T21:04:22.858Z,27.70
2022-08-07T21:06:31.675Z,27.80
2022-08-07T21:08:40.720Z,27.80
2022-08-07T21:10:46.515Z,27.70
2022-08-07T21:12:56.269Z,27.60
2022-08-07T21:15:05.264Z,27.70
2022-08-07T21:18:04.020Z,27.60
2022-08-07T21:19:50.721Z,27.50
2022-08-07T21:21:58.371Z,27.40
2022-08-07T21:24:08.438Z,27.50
2022-08-07T21:26:23.231Z,27.40
2022-08-07T21:28:48.850Z,27.40
2022-08-07T21:31:05.497Z,27.50
2022-08-07T21:33:17.986Z,27.50
2022-08-07T21:35:59.986Z,27.50
2022-08-07T21:38:00.921Z,27.40
2022-08-07T21:40:12.061Z,27.50
2022-08-07T21:42:42.583Z,27.40
2022-08-07T21:44:55.333Z,27.50
2022-08-07T21:47:12.470Z,27.40
2022-08-07T21:49:28.331Z,27.40
2022-08-07T21:51:51.668Z,27.40
2022-08-07T21:54:13.003Z,27.40
2022-08-07T21:56:36.191Z,27.40
2022-08-07T21:58:55.291Z,27.40
2022-08-07T22:01:14.031Z,27.30
2022-08-07T22:03:31.235Z,27.30
2022-08-07T22:05:51.091Z,27.20
2022-08-07T22:07:59.927Z,27.20
2022-08-07T22:10:08.288Z,27.20
2022-08-07T22:12:17.713Z,27.20
2022-08-07T22:14:24.031Z,27.20
2022-08-07T22:16:48.781Z,27.10
2022-08-07T22:19:01.876Z,27.00
2022-08-07T22:21:14.741Z,27.00
2022-08-07T22:23:23.051Z,26.90
2022-08-07T22:25:36.717Z,26.80
2022-08-07T22:28:20.285Z,26.80
2022-08-07T22:30:16.930Z,26.70
2022-08-07T22:32:30.877Z,26.80
2022-08-07T22:34:49.620Z,26.90
2022-08-07T22:37:12.481Z,27.00
2022-08-07T22:39:28.319Z,26.90
2022-08-07T22:42:03.680Z,26.80
2022-08-07T22:44:07.972Z,26.70
2022-08-07T22:46:55.994Z,26.60
2022-08-07T22:49:33.949Z,26.60
2022-08-07T22:51:53.563Z,26.50
2022-08-07T22:54:15.055Z,26.50
2022-08-07T22:56:29.595Z,26.60
2022-08-07T22:58:48.024Z,26.50
2022-08-07T23:01:09.637Z,26.50
2022-08-07T23:03:58.786Z,26.50
2022-08-07T23:06:31.727Z,26.50
2022-08-07T23:08:49.718Z,26.50
2022-08-07T23:11:13.362Z,26.40
2022-08-07T23:13:48.929Z,26.50
2022-08-07T23:16:46.735Z,26.40
2022-08-07T23:19:11.377Z,26.50
2022-08-07T23:21:30.260Z,26.40
2022-08-07T23:24:11.899Z,26.40
2022-08-07T23:26:23.399Z,26.30
2022-08-07T23:29:03.805Z,26.20
2022-08-07T23:32:49.030Z,26.20
2022-08-07T23:34:24.005Z,26.20
2022-08-07T23:37:19.002Z,26.10
2022-08-07T23:39:23.039Z,26.20
2022-08-07T23:41:47.566Z,26.20
2022-08-07T23:44:29.544Z,26.20
2022-08-07T23:46:58.683Z,26.20
2022-08-07T23:49:42.144Z,26.20
2022-08-07T23:53:00.349Z,26.10
2022-08-07T23:54:46.114Z,26.00
2022-08-07T23:56:58.052Z,26.00
